sensor_id;sensor_type;location;lat;lon;timestamp;P1;durP1;ratioP1;P2;durP2;ratioP2
55312;SDS011;46892;45.668;11.756;2023-06-22T00:01:57;15.60;;;12.02;;
55312;SDS011;46892;45.668;11.756;2023-06-22T00:04:24;16.63;;;11.70;;
55312;SDS011;46892;45.668;11.756;2023-06-22T00:06:50;12.93;;;11.10;;
55312;SDS011;46892;45.668;11.756;2023-06-22T00:09:16;14.00;;;11.80;;
55312;SDS011;46892;45.668;11.756;2023-06-22T00:11:41;15.55;;;12.35;;
55312;SDS011;46892;45.668;11.756;2023-06-22T00:14:07;14.40;;;11.45;;
55312;SDS011;46892;45.668;11.756;2023-06-22T00:16:33;17.45;;;13.48;;
55312;SDS011;46892;45.668;11.756;2023-06-22T00:18:59;16.13;;;13.05;;
55312;SDS011;46892;45.668;11.756;2023-06-22T00:21:29;14.02;;;12.63;;
55312;SDS011;46892;45.668;11.756;2023-06-22T00:23:55;15.23;;;13.00;;
55312;SDS011;46892;45.668;11.756;2023-06-22T00:26:22;16.58;;;14.35;;
55312;SDS011;46892;45.668;11.756;2023-06-22T00:28:48;17.70;;;14.38;;
55312;SDS011;46892;45.668;11.756;2023-06-22T00:31:14;14.02;;;12.32;;
55312;SDS011;46892;45.668;11.756;2023-06-22T00:33:39;16.27;;;13.48;;
55312;SDS011;46892;45.668;11.756;2023-06-22T00:36:05;16.52;;;14.15;;
55312;SDS011;46892;45.668;11.756;2023-06-22T00:38:32;13.90;;;11.35;;
55312;SDS011;46892;45.668;11.756;2023-06-22T00:40:59;15.52;;;13.93;;
55312;SDS011;46892;45.668;11.756;2023-06-22T00:43:24;14.80;;;13.13;;
55312;SDS011;46892;45.668;11.756;2023-06-22T00:45:50;15.57;;;13.90;;
55312;SDS011;46892;45.668;11.756;2023-06-22T00:48:16;18.48;;;13.80;;
55312;SDS011;46892;45.668;11.756;2023-06-22T00:50:42;17.80;;;15.25;;
55312;SDS011;46892;45.668;11.756;2023-06-22T00:53:08;16.83;;;15.02;;
55312;SDS011;46892;45.668;11.756;2023-06-22T00:55:44;18.25;;;14.63;;
55312;SDS011;46892;45.668;11.756;2023-06-22T00:58:12;19.23;;;15.38;;
55312;SDS011;46892;45.668;11.756;2023-06-22T01:00:39;19.05;;;15.38;;
55312;SDS011;46892;45.668;11.756;2023-06-22T01:03:06;19.15;;;15.50;;
55312;SDS011;46892;45.668;11.756;2023-06-22T01:05:35;20.30;;;14.77;;
55312;SDS011;46892;45.668;11.756;2023-06-22T01:16:03;20.35;;;16.52;;
55312;SDS011;46892;45.668;11.756;2023-06-22T01:18:36;20.55;;;17.48;;
55312;SDS011;46892;45.668;11.756;2023-06-22T01:21:05;21.08;;;18.55;;
55312;SDS011;46892;45.668;11.756;2023-06-22T01:26:25;20.83;;;14.10;;
55312;SDS011;46892;45.668;11.756;2023-06-22T01:29:03;20.52;;;14.45;;
55312;SDS011;46892;45.668;11.756;2023-06-22T01:31:32;19.70;;;17.33;;
55312;SDS011;46892;45.668;11.756;2023-06-22T01:34:02;20.33;;;18.13;;
55312;SDS011;46892;45.668;11.756;2023-06-22T01:36:30;19.27;;;16.77;;
55312;SDS011;46892;45.668;11.756;2023-06-22T01:38:57;24.92;;;19.45;;
55312;SDS011;46892;45.668;11.756;2023-06-22T01:41:27;19.77;;;16.50;;
55312;SDS011;46892;45.668;11.756;2023-06-22T01:43:55;20.57;;;17.27;;
55312;SDS011;46892;45.668;11.756;2023-06-22T01:46:21;23.40;;;19.70;;
55312;SDS011;46892;45.668;11.756;2023-06-22T01:48:48;21.67;;;18.80;;
55312;SDS011;46892;45.668;11.756;2023-06-22T01:51:15;22.77;;;19.43;;
55312;SDS011;46892;45.668;11.756;2023-06-22T01:53:41;19.75;;;17.23;;
55312;SDS011;46892;45.668;11.756;2023-06-22T01:56:08;23.48;;;18.55;;
55312;SDS011;46892;45.668;11.756;2023-06-22T01:58:34;23.20;;;18.75;;
55312;SDS011;46892;45.668;11.756;2023-06-22T02:01:12;23.63;;;18.67;;
55312;SDS011;46892;45.668;11.756;2023-06-22T02:03:47;22.60;;;20.20;;
55312;SDS011;46892;45.668;11.756;2023-06-22T02:06:27;23.87;;;19.40;;
55312;SDS011;46892;45.668;11.756;2023-06-22T02:09:01;21.45;;;18.70;;
55312;SDS011;46892;45.668;11.756;2023-06-22T02:11:31;23.20;;;19.65;;
55312;SDS011;46892;45.668;11.756;2023-06-22T02:13:58;22.43;;;17.23;;
55312;SDS011;46892;45.668;11.756;2023-06-22T02:16:24;22.63;;;17.70;;
55312;SDS011;46892;45.668;11.756;2023-06-22T02:21:20;20.67;;;18.33;;
55312;SDS011;46892;45.668;11.756;2023-06-22T02:23:46;19.53;;;17.53;;
55312;SDS011;46892;45.668;11.756;2023-06-22T02:26:12;21.80;;;18.80;;
55312;SDS011;46892;45.668;11.756;2023-06-22T02:28:38;21.88;;;18.38;;
55312;SDS011;46892;45.668;11.756;2023-06-22T02:31:04;21.43;;;18.77;;
55312;SDS011;46892;45.668;11.756;2023-06-22T02:33:30;20.92;;;17.58;;
55312;SDS011;46892;45.668;11.756;2023-06-22T02:35:56;19.50;;;17.42;;
55312;SDS011;46892;45.668;11.756;2023-06-22T02:38:21;21.77;;;18.93;;
55312;SDS011;46892;45.668;11.756;2023-06-22T02:40:49;21.77;;;19.13;;
55312;SDS011;46892;45.668;11.756;2023-06-22T02:43:15;21.97;;;19.67;;
55312;SDS011;46892;45.668;11.756;2023-06-22T02:45:41;24.90;;;18.13;;
55312;SDS011;46892;45.668;11.756;2023-06-22T02:48:07;23.15;;;19.80;;
55312;SDS011;46892;45.668;11.756;2023-06-22T02:50:33;21.17;;;18.40;;
55312;SDS011;46892;45.668;11.756;2023-06-22T02:52:59;20.52;;;18.38;;
55312;SDS011;46892;45.668;11.756;2023-06-22T02:55:24;21.00;;;18.63;;
55312;SDS011;46892;45.668;11.756;2023-06-22T02:57:50;21.20;;;17.60;;
55312;SDS011;46892;45.668;11.756;2023-06-22T03:00:18;27.63;;;18.97;;
55312;SDS011;46892;45.668;11.756;2023-06-22T03:02:47;22.73;;;17.33;;
55312;SDS011;46892;45.668;11.756;2023-06-22T03:05:13;16.70;;;14.87;;
55312;SDS011;46892;45.668;11.756;2023-06-22T03:07:43;18.98;;;16.55;;
55312;SDS011;46892;45.668;11.756;2023-06-22T03:10:10;21.30;;;17.63;;
55312;SDS011;46892;45.668;11.756;2023-06-22T03:12:37;21.03;;;18.57;;
55312;SDS011;46892;45.668;11.756;2023-06-22T03:15:04;22.80;;;18.57;;
55312;SDS011;46892;45.668;11.756;2023-06-22T03:17:31;22.83;;;20.30;;
55312;SDS011;46892;45.668;11.756;2023-06-22T03:19:57;20.60;;;18.47;;
55312;SDS011;46892;45.668;11.756;2023-06-22T03:22:22;21.37;;;17.93;;
55312;SDS011;46892;45.668;11.756;2023-06-22T03:24:48;25.70;;;19.83;;
55312;SDS011;46892;45.668;11.756;2023-06-22T03:27:14;21.53;;;19.03;;
55312;SDS011;46892;45.668;11.756;2023-06-22T03:29:40;22.40;;;18.27;;
55312;SDS011;46892;45.668;11.756;2023-06-22T03:32:06;24.60;;;18.58;;
55312;SDS011;46892;45.668;11.756;2023-06-22T03:34:32;20.13;;;17.50;;
55312;SDS011;46892;45.668;11.756;2023-06-22T03:37:03;21.10;;;17.13;;
55312;SDS011;46892;45.668;11.756;2023-06-22T03:39:29;18.25;;;16.27;;
55312;SDS011;46892;45.668;11.756;2023-06-22T03:41:56;20.23;;;16.58;;
55312;SDS011;46892;45.668;11.756;2023-06-22T03:44:22;20.65;;;17.27;;
55312;SDS011;46892;45.668;11.756;2023-06-22T03:46:47;24.90;;;20.17;;
55312;SDS011;46892;45.668;11.756;2023-06-22T03:49:13;20.33;;;18.30;;
55312;SDS011;46892;45.668;11.756;2023-06-22T03:51:39;22.30;;;19.98;;
55312;SDS011;46892;45.668;11.756;2023-06-22T03:54:04;23.95;;;19.58;;
55312;SDS011;46892;45.668;11.756;2023-06-22T03:56:30;34.30;;;20.93;;
55312;SDS011;46892;45.668;11.756;2023-06-22T03:58:56;23.53;;;18.97;;
55312;SDS011;46892;45.668;11.756;2023-06-22T04:01:22;25.88;;;19.75;;
55312;SDS011;46892;45.668;11.756;2023-06-22T04:03:48;22.50;;;19.48;;
55312;SDS011;46892;45.668;11.756;2023-06-22T04:06:14;22.70;;;18.17;;
55312;SDS011;46892;45.668;11.756;2023-06-22T04:08:40;23.63;;;20.17;;
55312;SDS011;46892;45.668;11.756;2023-06-22T04:11:06;24.70;;;19.70;;
55312;SDS011;46892;45.668;11.756;2023-06-22T04:13:31;22.73;;;20.33;;
55312;SDS011;46892;45.668;11.756;2023-06-22T04:15:57;23.23;;;20.30;;
55312;SDS011;46892;45.668;11.756;2023-06-22T04:18:23;23.40;;;20.90;;
55312;SDS011;46892;45.668;11.756;2023-06-22T04:20:49;24.60;;;21.03;;
55312;SDS011;46892;45.668;11.756;2023-06-22T04:23:14;24.17;;;21.50;;
55312;SDS011;46892;45.668;11.756;2023-06-22T04:25:40;23.47;;;20.80;;
55312;SDS011;46892;45.668;11.756;2023-06-22T04:28:06;25.50;;;22.03;;
55312;SDS011;46892;45.668;11.756;2023-06-22T04:30:37;18.95;;;16.63;;
55312;SDS011;46892;45.668;11.756;2023-06-22T04:33:11;18.00;;;16.10;;
55312;SDS011;46892;45.668;11.756;2023-06-22T04:35:38;24.58;;;21.83;;
55312;SDS011;46892;45.668;11.756;2023-06-22T04:38:06;24.95;;;20.88;;
55312;SDS011;46892;45.668;11.756;2023-06-22T04:40:32;27.60;;;22.30;;
55312;SDS011;46892;45.668;11.756;2023-06-22T04:42:58;23.83;;;21.30;;
55312;SDS011;46892;45.668;11.756;2023-06-22T04:45:27;26.37;;;22.83;;
55312;SDS011;46892;45.668;11.756;2023-06-22T04:47:54;24.20;;;21.00;;
55312;SDS011;46892;45.668;11.756;2023-06-22T04:50:20;26.93;;;24.03;;
55312;SDS011;46892;45.668;11.756;2023-06-22T04:52:47;24.45;;;21.75;;
55312;SDS011;46892;45.668;11.756;2023-06-22T04:55:13;22.77;;;20.30;;
55312;SDS011;46892;45.668;11.756;2023-06-22T04:57:43;27.95;;;24.13;;
55312;SDS011;46892;45.668;11.756;2023-06-22T05:00:16;25.30;;;22.35;;
55312;SDS011;46892;45.668;11.756;2023-06-22T05:02:44;22.67;;;20.27;;
55312;SDS011;46892;45.668;11.756;2023-06-22T05:05:11;28.27;;;25.25;;
55312;SDS011;46892;45.668;11.756;2023-06-22T05:07:39;30.70;;;27.02;;
55312;SDS011;46892;45.668;11.756;2023-06-22T05:10:08;29.40;;;25.25;;
55312;SDS011;46892;45.668;11.756;2023-06-22T05:12:35;26.20;;;23.40;;
55312;SDS011;46892;45.668;11.756;2023-06-22T05:15:01;27.08;;;24.02;;
55312;SDS011;46892;45.668;11.756;2023-06-22T05:17:27;29.67;;;26.45;;
55312;SDS011;46892;45.668;11.756;2023-06-22T05:19:53;30.50;;;26.58;;
55312;SDS011;46892;45.668;11.756;2023-06-22T05:22:20;35.40;;;27.67;;
55312;SDS011;46892;45.668;11.756;2023-06-22T05:24:46;29.45;;;24.25;;
55312;SDS011;46892;45.668;11.756;2023-06-22T05:27:12;30.00;;;26.35;;
55312;SDS011;46892;45.668;11.756;2023-06-22T05:29:38;28.15;;;24.13;;
55312;SDS011;46892;45.668;11.756;2023-06-22T05:32:04;28.92;;;24.38;;
55312;SDS011;46892;45.668;11.756;2023-06-22T05:34:30;26.42;;;23.67;;
55312;SDS011;46892;45.668;11.756;2023-06-22T05:36:55;27.25;;;24.08;;
55312;SDS011;46892;45.668;11.756;2023-06-22T05:39:23;25.20;;;22.05;;
55312;SDS011;46892;45.668;11.756;2023-06-22T05:41:50;26.73;;;22.63;;
55312;SDS011;46892;45.668;11.756;2023-06-22T05:44:16;28.70;;;23.05;;
55312;SDS011;46892;45.668;11.756;2023-06-22T05:46:42;24.63;;;21.80;;
55312;SDS011;46892;45.668;11.756;2023-06-22T05:49:13;24.20;;;21.15;;
55312;SDS011;46892;45.668;11.756;2023-06-22T05:51:39;25.90;;;20.80;;
55312;SDS011;46892;45.668;11.756;2023-06-22T05:54:06;28.83;;;20.52;;
55312;SDS011;46892;45.668;11.756;2023-06-22T05:56:33;21.50;;;19.27;;
55312;SDS011;46892;45.668;11.756;2023-06-22T05:58:59;21.38;;;18.63;;
55312;SDS011;46892;45.668;11.756;2023-06-22T06:01:25;19.70;;;16.55;;
55312;SDS011;46892;45.668;11.756;2023-06-22T06:03:53;16.77;;;14.98;;
55312;SDS011;46892;45.668;11.756;2023-06-22T06:06:19;16.15;;;13.57;;
55312;SDS011;46892;45.668;11.756;2023-06-22T06:08:53;21.20;;;16.25;;
55312;SDS011;46892;45.668;11.756;2023-06-22T06:11:19;24.35;;;17.40;;
55312;SDS011;46892;45.668;11.756;2023-06-22T06:13:45;25.05;;;19.52;;
55312;SDS011;46892;45.668;11.756;2023-06-22T06:16:10;21.58;;;19.27;;
55312;SDS011;46892;45.668;11.756;2023-06-22T06:18:36;20.85;;;16.98;;
55312;SDS011;46892;45.668;11.756;2023-06-22T06:21:02;23.40;;;19.27;;
55312;SDS011;46892;45.668;11.756;2023-06-22T06:23:28;21.67;;;18.92;;
55312;SDS011;46892;45.668;11.756;2023-06-22T06:25:54;28.13;;;19.73;;
55312;SDS011;46892;45.668;11.756;2023-06-22T06:28:19;22.40;;;19.25;;
55312;SDS011;46892;45.668;11.756;2023-06-22T06:30:45;24.00;;;19.30;;
55312;SDS011;46892;45.668;11.756;2023-06-22T06:33:12;26.35;;;21.40;;
55312;SDS011;46892;45.668;11.756;2023-06-22T06:35:38;29.60;;;21.88;;
55312;SDS011;46892;45.668;11.756;2023-06-22T06:38:03;30.02;;;22.30;;
55312;SDS011;46892;45.668;11.756;2023-06-22T06:40:29;24.88;;;22.10;;
55312;SDS011;46892;45.668;11.756;2023-06-22T06:42:55;23.30;;;20.50;;
55312;SDS011;46892;45.668;11.756;2023-06-22T06:45:22;23.38;;;20.27;;
55312;SDS011;46892;45.668;11.756;2023-06-22T06:47:48;24.40;;;20.60;;
55312;SDS011;46892;45.668;11.756;2023-06-22T06:50:15;25.83;;;22.02;;
55312;SDS011;46892;45.668;11.756;2023-06-22T06:52:41;21.92;;;19.17;;
55312;SDS011;46892;45.668;11.756;2023-06-22T06:55:08;21.17;;;18.33;;
55312;SDS011;46892;45.668;11.756;2023-06-22T07:00:12;25.42;;;19.58;;
55312;SDS011;46892;45.668;11.756;2023-06-22T07:02:39;25.92;;;18.80;;
55312;SDS011;46892;45.668;11.756;2023-06-22T07:05:06;22.25;;;17.67;;
55312;SDS011;46892;45.668;11.756;2023-06-22T07:07:32;22.40;;;17.65;;
55312;SDS011;46892;45.668;11.756;2023-06-22T07:09:58;21.20;;;17.48;;
55312;SDS011;46892;45.668;11.756;2023-06-22T07:12:24;19.10;;;16.55;;
55312;SDS011;46892;45.668;11.756;2023-06-22T07:14:51;19.30;;;17.23;;
55312;SDS011;46892;45.668;11.756;2023-06-22T07:17:17;19.67;;;16.92;;
55312;SDS011;46892;45.668;11.756;2023-06-22T07:19:43;19.25;;;16.98;;
55312;SDS011;46892;45.668;11.756;2023-06-22T07:22:08;22.05;;;16.60;;
55312;SDS011;46892;45.668;11.756;2023-06-22T07:24:34;22.90;;;17.08;;
55312;SDS011;46892;45.668;11.756;2023-06-22T07:27:00;22.30;;;16.77;;
55312;SDS011;46892;45.668;11.756;2023-06-22T07:29:27;20.98;;;16.83;;
55312;SDS011;46892;45.668;11.756;2023-06-22T07:31:53;21.75;;;16.10;;
55312;SDS011;46892;45.668;11.756;2023-06-22T07:34:21;21.23;;;15.68;;
55312;SDS011;46892;45.668;11.756;2023-06-22T07:36:47;22.42;;;18.92;;
55312;SDS011;46892;45.668;11.756;2023-06-22T07:39:13;21.38;;;17.85;;
55312;SDS011;46892;45.668;11.756;2023-06-22T07:41:39;20.70;;;15.23;;
55312;SDS011;46892;45.668;11.756;2023-06-22T07:44:08;19.95;;;16.23;;
55312;SDS011;46892;45.668;11.756;2023-06-22T07:46:34;18.20;;;15.07;;
55312;SDS011;46892;45.668;11.756;2023-06-22T07:49:00;18.73;;;14.05;;
55312;SDS011;46892;45.668;11.756;2023-06-22T07:51:26;19.55;;;15.73;;
55312;SDS011;46892;45.668;11.756;2023-06-22T07:53:52;19.70;;;16.25;;
55312;SDS011;46892;45.668;11.756;2023-06-22T07:56:17;14.40;;;12.82;;
55312;SDS011;46892;45.668;11.756;2023-06-22T07:58:47;17.90;;;13.20;;
55312;SDS011;46892;45.668;11.756;2023-06-22T08:01:15;17.00;;;13.35;;
55312;SDS011;46892;45.668;11.756;2023-06-22T08:03:42;17.48;;;11.70;;
55312;SDS011;46892;45.668;11.756;2023-06-22T08:06:08;15.80;;;13.25;;
55312;SDS011;46892;45.668;11.756;2023-06-22T08:08:38;22.15;;;15.68;;
55312;SDS011;46892;45.668;11.756;2023-06-22T08:11:03;18.67;;;14.17;;
55312;SDS011;46892;45.668;11.756;2023-06-22T08:13:30;16.50;;;14.23;;
55312;SDS011;46892;45.668;11.756;2023-06-22T08:15:57;19.90;;;15.15;;
55312;SDS011;46892;45.668;11.756;2023-06-22T08:18:22;19.45;;;16.42;;
55312;SDS011;46892;45.668;11.756;2023-06-22T08:20:48;20.35;;;15.05;;
55312;SDS011;46892;45.668;11.756;2023-06-22T08:23:14;19.30;;;15.52;;
55312;SDS011;46892;45.668;11.756;2023-06-22T08:25:40;16.85;;;14.13;;
55312;SDS011;46892;45.668;11.756;2023-06-22T08:28:06;19.08;;;15.00;;
55312;SDS011;46892;45.668;11.756;2023-06-22T08:30:32;19.95;;;14.38;;
55312;SDS011;46892;45.668;11.756;2023-06-22T08:32:58;16.70;;;12.05;;
55312;SDS011;46892;45.668;11.756;2023-06-22T08:35:23;15.18;;;12.13;;
55312;SDS011;46892;45.668;11.756;2023-06-22T08:37:49;17.15;;;12.43;;
55312;SDS011;46892;45.668;11.756;2023-06-22T08:40:19;17.88;;;13.18;;
55312;SDS011;46892;45.668;11.756;2023-06-22T08:42:45;18.27;;;14.88;;
55312;SDS011;46892;45.668;11.756;2023-06-22T08:45:12;21.02;;;16.80;;
55312;SDS011;46892;45.668;11.756;2023-06-22T08:47:39;18.88;;;15.38;;
55312;SDS011;46892;45.668;11.756;2023-06-22T08:50:06;19.48;;;14.65;;
55312;SDS011;46892;45.668;11.756;2023-06-22T08:52:33;19.00;;;14.93;;
55312;SDS011;46892;45.668;11.756;2023-06-22T08:54:59;16.70;;;13.73;;
55312;SDS011;46892;45.668;11.756;2023-06-22T08:57:26;14.27;;;12.80;;
55312;SDS011;46892;45.668;11.756;2023-06-22T08:59:52;18.08;;;13.63;;
55312;SDS011;46892;45.668;11.756;2023-06-22T09:02:18;18.02;;;13.82;;
55312;SDS011;46892;45.668;11.756;2023-06-22T09:04:45;16.48;;;13.68;;
55312;SDS011;46892;45.668;11.756;2023-06-22T09:07:11;16.63;;;13.93;;
55312;SDS011;46892;45.668;11.756;2023-06-22T09:09:37;19.30;;;15.10;;
55312;SDS011;46892;45.668;11.756;2023-06-22T09:12:03;18.45;;;14.57;;
55312;SDS011;46892;45.668;11.756;2023-06-22T09:14:29;19.75;;;14.80;;
55312;SDS011;46892;45.668;11.756;2023-06-22T09:16:55;18.63;;;13.63;;
55312;SDS011;46892;45.668;11.756;2023-06-22T09:19:20;14.73;;;11.48;;
55312;SDS011;46892;45.668;11.756;2023-06-22T09:21:46;18.63;;;13.48;;
55312;SDS011;46892;45.668;11.756;2023-06-22T09:24:12;17.08;;;11.48;;
55312;SDS011;46892;45.668;11.756;2023-06-22T09:26:38;19.50;;;13.13;;
55312;SDS011;46892;45.668;11.756;2023-06-22T09:29:05;17.58;;;12.20;;
55312;SDS011;46892;45.668;11.756;2023-06-22T09:31:31;15.43;;;10.32;;
55312;SDS011;46892;45.668;11.756;2023-06-22T09:33:57;17.40;;;11.00;;
55312;SDS011;46892;45.668;11.756;2023-06-22T09:36:22;12.52;;;8.35;;
55312;SDS011;46892;45.668;11.756;2023-06-22T09:38:49;11.63;;;8.88;;
55312;SDS011;46892;45.668;11.756;2023-06-22T09:41:20;15.30;;;10.93;;
55312;SDS011;46892;45.668;11.756;2023-06-22T09:43:46;13.30;;;10.55;;
55312;SDS011;46892;45.668;11.756;2023-06-22T09:46:14;15.43;;;10.50;;
55312;SDS011;46892;45.668;11.756;2023-06-22T09:48:40;14.38;;;11.13;;
55312;SDS011;46892;45.668;11.756;2023-06-22T09:51:06;16.15;;;11.52;;
55312;SDS011;46892;45.668;11.756;2023-06-22T09:53:32;17.33;;;13.43;;
55312;SDS011;46892;45.668;11.756;2023-06-22T09:55:59;15.50;;;12.60;;
55312;SDS011;46892;45.668;11.756;2023-06-22T09:58:27;18.83;;;13.40;;
55312;SDS011;46892;45.668;11.756;2023-06-22T10:00:53;17.10;;;12.60;;
55312;SDS011;46892;45.668;11.756;2023-06-22T10:03:19;15.15;;;11.80;;
55312;SDS011;46892;45.668;11.756;2023-06-22T10:05:46;16.98;;;10.93;;
55312;SDS011;46892;45.668;11.756;2023-06-22T10:08:12;14.05;;;9.20;;
55312;SDS011;46892;45.668;11.756;2023-06-22T10:10:37;13.13;;;8.25;;
55312;SDS011;46892;45.668;11.756;2023-06-22T10:13:10;12.73;;;9.40;;
55312;SDS011;46892;45.668;11.756;2023-06-22T10:15:36;13.90;;;8.20;;
55312;SDS011;46892;45.668;11.756;2023-06-22T10:18:02;11.38;;;7.43;;
55312;SDS011;46892;45.668;11.756;2023-06-22T10:20:28;10.93;;;7.55;;
55312;SDS011;46892;45.668;11.756;2023-06-22T10:22:54;10.40;;;6.20;;
55312;SDS011;46892;45.668;11.756;2023-06-22T10:25:20;12.48;;;7.25;;
55312;SDS011;46892;45.668;11.756;2023-06-22T10:27:47;12.65;;;7.18;;
55312;SDS011;46892;45.668;11.756;2023-06-22T10:30:13;13.88;;;7.93;;
55312;SDS011;46892;45.668;11.756;2023-06-22T10:32:39;13.27;;;7.97;;
55312;SDS011;46892;45.668;11.756;2023-06-22T10:35:06;12.25;;;8.20;;
55312;SDS011;46892;45.668;11.756;2023-06-22T10:37:32;15.77;;;7.20;;
55312;SDS011;46892;45.668;11.756;2023-06-22T10:39:58;11.23;;;6.75;;
55312;SDS011;46892;45.668;11.756;2023-06-22T10:42:24;9.77;;;7.30;;
55312;SDS011;46892;45.668;11.756;2023-06-22T10:44:49;14.23;;;7.72;;
55312;SDS011;46892;45.668;11.756;2023-06-22T10:47:15;9.10;;;6.43;;
55312;SDS011;46892;45.668;11.756;2023-06-22T10:49:41;11.13;;;7.55;;
55312;SDS011;46892;45.668;11.756;2023-06-22T10:52:07;10.82;;;6.80;;
55312;SDS011;46892;45.668;11.756;2023-06-22T10:54:34;10.88;;;7.20;;
55312;SDS011;46892;45.668;11.756;2023-06-22T10:57:00;11.77;;;8.02;;
55312;SDS011;46892;45.668;11.756;2023-06-22T10:59:27;14.60;;;7.45;;
55312;SDS011;46892;45.668;11.756;2023-06-22T11:01:54;10.10;;;6.50;;
55312;SDS011;46892;45.668;11.756;2023-06-22T11:04:21;10.15;;;7.75;;
55312;SDS011;46892;45.668;11.756;2023-06-22T11:06:47;18.83;;;8.77;;
55312;SDS011;46892;45.668;11.756;2023-06-22T11:09:14;10.98;;;7.25;;
55312;SDS011;46892;45.668;11.756;2023-06-22T11:11:44;12.75;;;6.22;;
55312;SDS011;46892;45.668;11.756;2023-06-22T11:14:10;10.30;;;5.88;;
55312;SDS011;46892;45.668;11.756;2023-06-22T11:16:36;13.85;;;5.97;;
55312;SDS011;46892;45.668;11.756;2023-06-22T11:19:02;10.23;;;5.85;;
55312;SDS011;46892;45.668;11.756;2023-06-22T11:21:29;9.77;;;6.07;;
55312;SDS011;46892;45.668;11.756;2023-06-22T11:23:56;11.40;;;5.70;;
55312;SDS011;46892;45.668;11.756;2023-06-22T11:26:22;9.38;;;5.70;;
55312;SDS011;46892;45.668;11.756;2023-06-22T11:28:48;8.27;;;5.25;;
55312;SDS011;46892;45.668;11.756;2023-06-22T11:31:14;13.55;;;5.60;;
55312;SDS011;46892;45.668;11.756;2023-06-22T11:33:39;11.60;;;5.90;;
55312;SDS011;46892;45.668;11.756;2023-06-22T11:36:05;9.15;;;4.97;;
55312;SDS011;46892;45.668;11.756;2023-06-22T11:38:31;12.18;;;5.07;;
55312;SDS011;46892;45.668;11.756;2023-06-22T11:40:57;11.85;;;6.15;;
55312;SDS011;46892;45.668;11.756;2023-06-22T11:43:23;7.78;;;4.97;;
55312;SDS011;46892;45.668;11.756;2023-06-22T11:45:49;9.70;;;5.00;;
55312;SDS011;46892;45.668;11.756;2023-06-22T11:48:15;13.88;;;5.45;;
55312;SDS011;46892;45.668;11.756;2023-06-22T11:50:41;11.20;;;5.20;;
55312;SDS011;46892;45.668;11.756;2023-06-22T11:53:07;9.38;;;4.57;;
55312;SDS011;46892;45.668;11.756;2023-06-22T11:55:33;10.13;;;5.03;;
55312;SDS011;46892;45.668;11.756;2023-06-22T11:57:58;11.10;;;4.65;;
55312;SDS011;46892;45.668;11.756;2023-06-22T12:00:28;7.55;;;4.72;;
55312;SDS011;46892;45.668;11.756;2023-06-22T12:02:54;7.30;;;4.55;;
55312;SDS011;46892;45.668;11.756;2023-06-22T12:05:21;12.25;;;5.88;;
55312;SDS011;46892;45.668;11.756;2023-06-22T12:07:47;9.02;;;5.07;;
55312;SDS011;46892;45.668;11.756;2023-06-22T12:10:14;8.60;;;5.35;;
55312;SDS011;46892;45.668;11.756;2023-06-22T12:12:40;8.82;;;5.13;;
55312;SDS011;46892;45.668;11.756;2023-06-22T12:15:06;9.07;;;4.90;;
55312;SDS011;46892;45.668;11.756;2023-06-22T12:17:33;9.10;;;4.85;;
55312;SDS011;46892;45.668;11.756;2023-06-22T12:19:59;11.32;;;5.05;;
55312;SDS011;46892;45.668;11.756;2023-06-22T12:22:25;9.10;;;5.15;;
55312;SDS011;46892;45.668;11.756;2023-06-22T12:24:51;9.15;;;5.47;;
55312;SDS011;46892;45.668;11.756;2023-06-22T12:27:17;13.25;;;5.40;;
55312;SDS011;46892;45.668;11.756;2023-06-22T12:29:46;9.02;;;5.25;;
55312;SDS011;46892;45.668;11.756;2023-06-22T12:32:12;8.88;;;5.25;;
55312;SDS011;46892;45.668;11.756;2023-06-22T12:34:38;9.63;;;5.03;;
55312;SDS011;46892;45.668;11.756;2023-06-22T12:37:05;11.23;;;6.35;;
55312;SDS011;46892;45.668;11.756;2023-06-22T12:39:31;9.15;;;6.00;;
55312;SDS011;46892;45.668;11.756;2023-06-22T12:41:57;7.82;;;5.53;;
55312;SDS011;46892;45.668;11.756;2023-06-22T12:44:24;10.02;;;5.72;;
55312;SDS011;46892;45.668;11.756;2023-06-22T12:46:50;13.25;;;5.85;;
55312;SDS011;46892;45.668;11.756;2023-06-22T12:49:15;7.85;;;5.50;;
55312;SDS011;46892;45.668;11.756;2023-06-22T12:51:42;9.18;;;5.55;;
55312;SDS011;46892;45.668;11.756;2023-06-22T12:54:08;9.60;;;5.22;;
55312;SDS011;46892;45.668;11.756;2023-06-22T12:56:35;12.73;;;5.63;;
55312;SDS011;46892;45.668;11.756;2023-06-22T12:59:01;9.15;;;5.50;;
55312;SDS011;46892;45.668;11.756;2023-06-22T13:01:30;10.70;;;5.18;;
55312;SDS011;46892;45.668;11.756;2023-06-22T13:03:57;9.55;;;5.47;;
55312;SDS011;46892;45.668;11.756;2023-06-22T13:06:23;9.52;;;5.05;;
55312;SDS011;46892;45.668;11.756;2023-06-22T13:08:49;9.32;;;5.50;;
55312;SDS011;46892;45.668;11.756;2023-06-22T13:11:15;9.43;;;5.45;;
55312;SDS011;46892;45.668;11.756;2023-06-22T13:13:41;11.02;;;5.70;;
55312;SDS011;46892;45.668;11.756;2023-06-22T13:16:07;8.45;;;5.45;;
55312;SDS011;46892;45.668;11.756;2023-06-22T13:18:33;8.90;;;5.80;;
55312;SDS011;46892;45.668;11.756;2023-06-22T13:21:00;8.52;;;6.10;;
55312;SDS011;46892;45.668;11.756;2023-06-22T13:23:27;9.65;;;5.95;;
55312;SDS011;46892;45.668;11.756;2023-06-22T13:25:52;9.35;;;6.00;;
55312;SDS011;46892;45.668;11.756;2023-06-22T13:28:18;11.73;;;6.03;;
55312;SDS011;46892;45.668;11.756;2023-06-22T13:30:45;9.77;;;5.72;;
55312;SDS011;46892;45.668;11.756;2023-06-22T13:33:12;8.55;;;5.70;;
55312;SDS011;46892;45.668;11.756;2023-06-22T13:35:38;13.48;;;5.90;;
55312;SDS011;46892;45.668;11.756;2023-06-22T13:38:04;13.68;;;6.40;;
55312;SDS011;46892;45.668;11.756;2023-06-22T13:40:30;10.45;;;6.18;;
55312;SDS011;46892;45.668;11.756;2023-06-22T13:42:56;10.45;;;5.55;;
55312;SDS011;46892;45.668;11.756;2023-06-22T13:45:22;11.68;;;6.07;;
55312;SDS011;46892;45.668;11.756;2023-06-22T13:47:48;9.57;;;6.13;;
55312;SDS011;46892;45.668;11.756;2023-06-22T13:50:14;12.60;;;6.60;;
55312;SDS011;46892;45.668;11.756;2023-06-22T13:52:40;12.05;;;5.60;;
55312;SDS011;46892;45.668;11.756;2023-06-22T13:55:06;7.28;;;5.13;;
55312;SDS011;46892;45.668;11.756;2023-06-22T13:57:32;8.40;;;6.03;;
55312;SDS011;46892;45.668;11.756;2023-06-22T13:59:59;9.00;;;6.30;;
55312;SDS011;46892;45.668;11.756;2023-06-22T14:02:27;10.00;;;5.72;;
55312;SDS011;46892;45.668;11.756;2023-06-22T14:04:53;8.38;;;5.72;;
55312;SDS011;46892;45.668;11.756;2023-06-22T14:07:19;12.35;;;6.25;;
55312;SDS011;46892;45.668;11.756;2023-06-22T14:09:45;12.95;;;6.88;;
55312;SDS011;46892;45.668;11.756;2023-06-22T14:12:11;11.43;;;6.40;;
55312;SDS011;46892;45.668;11.756;2023-06-22T14:14:38;8.65;;;5.85;;
55312;SDS011;46892;45.668;11.756;2023-06-22T14:17:04;9.63;;;5.85;;
55312;SDS011;46892;45.668;11.756;2023-06-22T14:19:30;10.38;;;6.20;;
55312;SDS011;46892;45.668;11.756;2023-06-22T14:21:56;8.65;;;6.32;;
55312;SDS011;46892;45.668;11.756;2023-06-22T14:24:22;13.75;;;6.72;;
55312;SDS011;46892;45.668;11.756;2023-06-22T14:26:48;13.57;;;6.82;;